createdAt,value
2019-01-06T00:00:08.509Z,77.70
2019-01-06T00:02:55.171Z,77.80
2019-01-06T00:05:51.424Z,77.80
2019-01-06T00:08:41.084Z,77.70
2019-01-06T00:11:31.072Z,77.90
2019-01-06T00:14:18.070Z,77.60
2019-01-06T00:17:03.499Z,78.00
2019-01-06T00:19:49.280Z,78.10
2019-01-06T00:22:26.942Z,78.10
2019-01-06T00:25:08.093Z,78.00
2019-01-06T00:27:55.529Z,77.90
2019-01-06T00:30:54.039Z,78.00
2019-01-06T00:33:39.371Z,77.90
2019-01-06T00:36:37.872Z,78.00
2019-01-06T00:39:23.579Z,78.00
2019-01-06T00:42:13.820Z,77.80
2019-01-06T00:45:15.384Z,77.80
2019-01-06T00:48:05.000Z,77.90
2019-01-06T00:50:57.107Z,78.10
2019-01-06T00:54:00.216Z,78.10
2019-01-06T00:56:45.271Z,78.00
2019-01-06T00:59:37.692Z,77.70
2019-01-06T01:02:24.052Z,77.70
2019-01-06T01:05:14.440Z,77.80
2019-01-06T01:07:58.284Z,77.60
2019-01-06T01:10:54.395Z,77.80
2019-01-06T01:13:58.939Z,77.90
2019-01-06T01:16:44.519Z,77.90
2019-01-06T01:19:30.220Z,78.00
2019-01-06T01:22:23.236Z,78.10
2019-01-06T01:25:15.969Z,77.90
2019-01-06T01:28:00.837Z,78.30
2019-01-06T01:30:46.403Z,78.40
2019-01-06T01:33:30.184Z,78.30
2019-01-06T01:36:16.371Z,78.20
2019-01-06T01:39:01.234Z,78.10
2019-01-06T01:41:46.972Z,78.30
2019-01-06T01:44:34.001Z,78.40
2019-01-06T01:47:23.846Z,78.40
2019-01-06T01:50:09.801Z,78.50
2019-01-06T01:53:00.456Z,78.40
2019-01-06T01:55:51.375Z,78.60
2019-01-06T01:58:50.310Z,78.20
2019-01-06T02:01:40.900Z,78.20
2019-01-06T02:04:34.435Z,78.20
2019-01-06T02:07:36.865Z,78.00
2019-01-06T02:10:29.563Z,78.10
2019-01-06T02:13:15.595Z,78.40
2019-01-06T02:16:05.501Z,78.30
2019-01-06T02:18:44.162Z,78.20
2019-01-06T02:21:34.836Z,78.20
2019-01-06T02:24:24.920Z,78.00
2019-01-06T02:27:17.835Z,78.10
2019-01-06T02:30:05.750Z,78.20
2019-01-06T02:32:54.788Z,78.30
2019-01-06T02:35:43.492Z,78.20
2019-01-06T02:38:31.794Z,78.10
2019-01-06T02:41:17.305Z,77.90
2019-01-06T02:44:03.750Z,78.20
2019-01-06T02:47:00.055Z,77.90
2019-01-06T02:49:48.372Z,77.60
2019-01-06T02:52:38.084Z,77.90
2019-01-06T02:55:30.988Z,77.30
2019-01-06T02:58:16.767Z,77.20
2019-01-06T03:01:03.011Z,77.10
2019-01-06T03:03:56.245Z,77.20
2019-01-06T03:06:43.269Z,77.10
2019-01-06T03:09:33.246Z,77.10
2019-01-06T03:12:39.001Z,76.80
2019-01-06T03:15:20.417Z,76.80
2019-01-06T03:18:06.204Z,77.00
2019-01-06T03:20:54.024Z,76.90
2019-01-06T03:23:51.608Z,77.20
2019-01-06T03:26:54.075Z,77.10
2019-01-06T03:29:37.631Z,77.00
2019-01-06T03:32:43.741Z,77.00
2019-01-06T03:35:29.637Z,77.10
2019-01-06T03:38:17.387Z,77.00
2019-01-06T03:41:15.047Z,77.00
2019-01-06T03:44:10.984Z,77.20
2019-01-06T03:47:06.820Z,77.10
2019-01-06T03:49:52.013Z,77.30
2019-01-06T03:52:37.165Z,77.30
2019-01-06T03:55:20.996Z,77.50
2019-01-06T03:58:07.044Z,77.60
2019-01-06T04:00:49.069Z,77.30
2019-01-06T04:03:45.512Z,77.30
2019-01-06T04:06:31.350Z,77.40
2019-01-06T04:09:08.364Z,77.20
2019-01-06T04:12:00.325Z,77.10
2019-01-06T04:14:46.801Z,77.10
2019-01-06T04:17:35.540Z,77.20
2019-01-06T04:20:29.119Z,76.80
2019-01-06T04:23:26.498Z,76.90
2019-01-06T04:26:13.628Z,76.80
2019-01-06T04:29:00.037Z,76.40
2019-01-06T04:31:46.322Z,76.60
2019-01-06T04:34:38.265Z,76.40
2019-01-06T04:37:27.912Z,77.00
2019-01-06T04:40:20.261Z,76.60
2019-01-06T04:42:56.211Z,76.70
2019-01-06T04:45:58.160Z,76.70
2019-01-06T04:48:43.760Z,76.40
2019-01-06T04:51:29.591Z,76.60
2019-01-06T04:54:12.839Z,76.60
2019-01-06T04:56:52.947Z,76.60
2019-01-06T04:59:38.259Z,76.50
2019-01-06T05:02:21.535Z,76.80
2019-01-06T05:05:14.987Z,76.60
2019-01-06T05:08:01.700Z,76.50
2019-01-06T05:10:57.340Z,76.60
2019-01-06T05:13:41.383Z,76.40
2019-01-06T05:16:43.170Z,76.70
2019-01-06T05:19:20.933Z,76.50
2019-01-06T05:22:07.219Z,76.50
2019-01-06T05:24:54.073Z,76.20
2019-01-06T05:27:31.019Z,76.30
2019-01-06T05:30:20.337Z,76.30
2019-01-06T05:33:06.114Z,76.20
2019-01-06T05:35:51.339Z,76.30
2019-01-06T05:38:41.670Z,76.30
2019-01-06T05:41:27.296Z,76.30
2019-01-06T05:44:12.939Z,76.30
2019-01-06T05:47:05.410Z,76.40
2019-01-06T05:49:47.787Z,76.20
2019-01-06T05:52:50.423Z,76.50
2019-01-06T05:55:32.981Z,76.40
2019-01-06T05:58:23.482Z,76.30
2019-01-06T06:01:10.775Z,76.30
2019-01-06T06:04:03.751Z,76.40
2019-01-06T06:06:45.083Z,76.20
2019-01-06T06:09:26.007Z,76.30
2019-01-06T06:12:12.939Z,76.40
2019-01-06T06:14:59.927Z,76.40
2019-01-06T06:17:46.240Z,76.20
2019-01-06T06:20:38.883Z,76.50
2019-01-06T06:23:44.506Z,76.40
2019-01-06T06:26:34.427Z,76.80
2019-01-06T06:29:27.887Z,76.30
2019-01-06T06:32:13.811Z,76.30
2019-01-06T06:35:18.643Z,76.40
2019-01-06T06:37:59.050Z,76.00
2019-01-06T06:40:59.575Z,76.10
2019-01-06T06:43:44.854Z,76.10
2019-01-06T06:46:27.068Z,76.10
2019-01-06T06:49:12.484Z,76.40
2019-01-06T06:52:01.510Z,76.60
2019-01-06T06:54:59.061Z,76.20
2019-01-06T06:58:37.583Z,76.20
2019-01-06T07:01:54.969Z,76.00
2019-01-06T07:04:43.780Z,76.80
2019-01-06T07:07:30.331Z,76.10
2019-01-06T07:10:16.340Z,75.90
2019-01-06T07:13:02.749Z,76.10
2019-01-06T07:15:48.648Z,76.00
2019-01-06T07:18:37.843Z,76.20
2019-01-06T07:21:31.800Z,76.00
2019-01-06T07:24:13.719Z,76.00
2019-01-06T07:27:00.976Z,76.10
2019-01-06T07:29:48.647Z,76.10
2019-01-06T07:32:35.791Z,76.20
2019-01-06T07:35:22.210Z,76.30
2019-01-06T07:38:08.203Z,76.30
2019-01-06T07:41:08.276Z,76.20
2019-01-06T07:44:10.611Z,76.30
2019-01-06T07:46:58.512Z,76.40
2019-01-06T07:49:38.160Z,76.70
2019-01-06T07:52:12.296Z,76.00
2019-01-06T07:55:08.404Z,76.00
2019-01-06T07:57:43.839Z,76.20
2019-01-06T08:00:20.564Z,76.30
2019-01-06T08:03:05.900Z,76.10
2019-01-06T08:05:51.539Z,77.10
2019-01-06T08:08:38.232Z,76.10
2019-01-06T08:11:27.744Z,76.10
2019-01-06T08:14:27.057Z,76.10
2019-01-06T08:17:15.234Z,76.00
2019-01-06T08:20:17.657Z,76.10
2019-01-06T08:23:09.684Z,76.20
2019-01-06T08:26:00.877Z,76.00
2019-01-06T08:28:49.655Z,76.20
2019-01-06T08:31:41.940Z,76.40
2019-01-06T08:34:34.550Z,77.30
2019-01-06T08:37:19.869Z,77.10
2019-01-06T08:40:11.668Z,77.40
2019-01-06T08:43:01.135Z,77.90
2019-01-06T08:45:51.204Z,78.70
2019-01-06T08:48:43.151Z,79.40
2019-01-06T08:51:26.163Z,79.60
2019-01-06T08:54:15.467Z,79.60
2019-01-06T08:57:18.530Z,79.80
2019-01-06T09:00:05.021Z,79.90
2019-01-06T09:02:55.798Z,79.50
2019-01-06T09:05:45.616Z,79.30
2019-01-06T09:08:31.316Z,79.50
2019-01-06T09:11:21.519Z,79.70
2019-01-06T09:14:07.387Z,80.00
2019-01-06T09:17:09.631Z,80.60
2019-01-06T09:20:01.500Z,80.60
2019-01-06T09:22:46.999Z,81.30
2019-01-06T09:25:40.894Z,81.40
2019-01-06T09:28:22.212Z,81.30
2019-01-06T09:31:08.111Z,81.10
2019-01-06T09:33:54.788Z,81.10
2019-01-06T09:36:54.127Z,81.20
2019-01-06T09:39:40.055Z,81.10
2019-01-06T09:42:25.829Z,81.50
2019-01-06T09:45:08.762Z,81.30
2019-01-06T09:48:00.166Z,81.60
2019-01-06T09:50:50.666Z,81.20
2019-01-06T09:53:36.193Z,81.30
2019-01-06T09:56:22.626Z,81.40
2019-01-06T09:59:08.639Z,81.20
2019-01-06T10:01:56.024Z,81.20
2019-01-06T10:04:43.123Z,81.60
2019-01-06T10:07:35.555Z,81.40
2019-01-06T10:10:36.932Z,81.20
2019-01-06T10:13:22.520Z,81.20
2019-01-06T10:16:08.391Z,80.80
2019-01-06T10:18:51.168Z,81.80
2019-01-06T10:21:32.112Z,81.00
2019-01-06T10:24:18.951Z,80.50
2019-01-06T10:27:08.470Z,80.50
2019-01-06T10:30:00.308Z,80.90
2019-01-06T10:32:35.871Z,80.50
2019-01-06T10:35:32.454Z,80.30
2019-01-06T10:38:21.027Z,80.40
2019-01-06T10:41:10.440Z,80.10
2019-01-06T10:43:50.272Z,80.20
2019-01-06T10:46:50.235Z,80.30
2019-01-06T10:49:35.260Z,79.70
2019-01-06T10:52:20.980Z,79.70
2019-01-06T10:55:06.741Z,80.10
2019-01-06T10:57:50.300Z,79.60
2019-01-06T11:00:48.812Z,79.50
2019-01-06T11:03:34.383Z,79.60
2019-01-06T11:06:18.865Z,79.60
2019-01-06T11:09:06.995Z,78.40
2019-01-06T11:11:52.527Z,79.40
2019-01-06T11:14:42.755Z,78.90
2019-01-06T11:17:45.680Z,78.50
2019-01-06T11:20:34.191Z,78.60
2019-01-06T11:23:19.496Z,78.40
2019-01-06T11:26:03.239Z,78.60
2019-01-06T11:28:47.046Z,78.10
2019-01-06T11:31:34.091Z,77.90
2019-01-06T11:34:25.059Z,77.70
2019-01-06T11:37:27.954Z,77.60
2019-01-06T11:40:18.976Z,78.00
2019-01-06T11:43:02.714Z,77.40
2019-01-06T11:45:47.854Z,77.50
2019-01-06T11:48:36.525Z,78.00
2019-01-06T11:51:29.662Z,77.50
2019-01-06T11:54:10.645Z,77.30
2019-01-06T11:56:57.575Z,77.30
2019-01-06T11:59:53.245Z,77.70
2019-01-06T12:02:39.244Z,77.00
2019-01-06T12:05:34.717Z,77.10
2019-01-06T12:08:30.419Z,77.20
2019-01-06T12:11:12.263Z,76.90
2019-01-06T12:14:05.693Z,77.00
2019-01-06T12:16:46.592Z,77.20
2019-01-06T12:19:39.323Z,76.90
2019-01-06T12:22:29.497Z,77.00
2019-01-06T12:25:14.451Z,76.90
2019-01-06T12:27:56.807Z,77.10
2019-01-06T12:30:51.714Z,77.10
2019-01-06T12:33:44.619Z,77.20
2019-01-06T12:36:34.803Z,76.60
2019-01-06T12:39:36.359Z,77.00
2019-01-06T12:42:22.687Z,76.90
2019-01-06T12:45:09.174Z,76.60
2019-01-06T12:48:02.691Z,76.90
2019-01-06T12:50:49.056Z,76.80
2019-01-06T12:53:50.544Z,76.80
2019-01-06T12:56:52.383Z,76.90
2019-01-06T12:59:47.008Z,77.30
2019-01-06T13:02:52.366Z,76.60
2019-01-06T13:05:45.139Z,76.30
2019-01-06T13:08:47.060Z,76.30
2019-01-06T13:11:34.671Z,76.30
2019-01-06T13:14:21.324Z,76.20
2019-01-06T13:17:08.712Z,76.30
2019-01-06T13:19:54.260Z,76.30
2019-01-06T13:22:39.683Z,76.20
2019-01-06T13:25:25.291Z,76.40
2019-01-06T13:28:15.562Z,76.10
2019-01-06T13:30:55.439Z,76.60
2019-01-06T13:33:42.371Z,76.40
2019-01-06T13:36:33.825Z,76.20
2019-01-06T13:39:24.213Z,76.80
2019-01-06T13:42:09.443Z,76.20
2019-01-06T13:44:53.044Z,76.40
2019-01-06T13:51:33.415Z,75.60
2019-01-06T13:54:19.119Z,75.90
2019-01-06T13:57:05.021Z,76.10
2019-01-06T13:59:50.765Z,76.20
2019-01-06T14:02:37.051Z,76.10
2019-01-06T14:05:22.787Z,76.00
2019-01-06T14:08:25.774Z,76.00
2019-01-06T14:11:10.801Z,76.00
2019-01-06T14:13:54.352Z,75.70
2019-01-06T14:16:39.513Z,75.90
2019-01-06T14:19:30.280Z,75.90
2019-01-06T14:22:19.623Z,76.00
2019-01-06T14:25:03.755Z,75.70
2019-01-06T14:27:48.940Z,75.80
2019-01-06T14:30:34.478Z,75.60
2019-01-06T14:33:16.959Z,75.70
2019-01-06T14:36:02.021Z,75.70
2019-01-06T14:38:47.618Z,75.80
2019-01-06T14:41:40.987Z,75.80
2019-01-06T14:44:26.268Z,75.70
2019-01-06T14:47:19.695Z,75.60
2019-01-06T14:50:12.580Z,75.60
2019-01-06T14:52:58.559Z,75.70
2019-01-06T14:55:51.793Z,75.50
2019-01-06T14:58:36.566Z,75.70
2019-01-06T15:01:21.939Z,75.60
2019-01-06T15:04:07.748Z,75.50
2019-01-06T15:06:53.185Z,75.50
2019-01-06T15:09:38.612Z,75.60
2019-01-06T15:12:16.724Z,75.60
2019-01-06T15:15:00.608Z,75.40
2019-01-06T15:17:58.927Z,75.40
2019-01-06T15:20:45.895Z,75.30
2019-01-06T15:23:32.931Z,75.50
2019-01-06T15:26:18.331Z,75.50
2019-01-06T15:29:14.895Z,75.50
2019-01-06T15:32:07.128Z,75.50
2019-01-06T15:35:03.168Z,75.60
2019-01-06T15:37:48.672Z,75.70
2019-01-06T15:40:33.973Z,75.70
2019-01-06T15:43:30.962Z,75.70
2019-01-06T15:46:17.795Z,75.80
2019-01-06T15:49:07.716Z,75.60
2019-01-06T15:52:07.132Z,75.80
2019-01-06T15:54:53.011Z,76.00
2019-01-06T15:57:38.624Z,76.00
2019-01-06T16:00:24.788Z,76.20
2019-01-06T16:03:21.667Z,76.20
2019-01-06T16:06:11.236Z,76.00
2019-01-06T16:09:13.690Z,76.20
2019-01-06T16:12:03.344Z,76.20
2019-01-06T16:14:51.047Z,76.40
2019-01-06T16:17:50.756Z,76.00
2019-01-06T16:20:46.499Z,76.10
2019-01-06T16:23:31.850Z,76.10
2019-01-06T16:26:15.267Z,76.10
2019-01-06T16:29:04.375Z,76.30
2019-01-06T16:31:46.295Z,76.30
2019-01-06T16:34:41.907Z,76.00
2019-01-06T16:37:40.583Z,76.00
2019-01-06T16:40:36.860Z,75.90
2019-01-06T16:43:30.662Z,76.10
2019-01-06T16:46:16.043Z,76.10
2019-01-06T16:48:56.808Z,75.70
2019-01-06T16:51:46.835Z,75.90
2019-01-06T16:54:27.515Z,75.60
2019-01-06T16:57:25.722Z,75.70
2019-01-06T17:00:27.239Z,75.70
2019-01-06T17:03:29.737Z,75.60
2019-01-06T17:06:10.049Z,75.60
2019-01-06T17:09:00.828Z,75.70
2019-01-06T17:11:56.995Z,75.60
2019-01-06T17:14:59.736Z,75.60
2019-01-06T17:17:48.848Z,75.60
2019-01-06T17:20:41.543Z,75.60
2019-01-06T17:23:28.847Z,75.10
2019-01-06T17:26:14.356Z,75.30
2019-01-06T17:28:56.586Z,75.30
2019-01-06T17:31:42.859Z,75.00
2019-01-06T17:34:41.861Z,75.10
2019-01-06T17:37:38.333Z,74.90
2019-01-06T17:40:21.124Z,75.10
2019-01-06T17:43:07.005Z,75.00
2019-01-06T17:45:52.647Z,74.80
2019-01-06T17:48:39.703Z,74.90
2019-01-06T17:51:32.425Z,74.70
2019-01-06T17:54:21.348Z,74.70
2019-01-06T17:57:14.423Z,74.80
2019-01-06T18:00:07.838Z,74.80
2019-01-06T18:03:02.820Z,74.80
2019-01-06T18:05:48.267Z,74.60
2019-01-06T18:08:40.180Z,74.50
2019-01-06T18:11:25.768Z,74.50
2019-01-06T18:14:11.900Z,74.50
2019-01-06T18:16:56.894Z,74.50
2019-01-06T18:19:50.301Z,74.40
2019-01-06T18:22:36.460Z,74.40
2019-01-06T18:25:32.451Z,74.40
2019-01-06T18:28:38.643Z,74.30
2019-01-06T18:31:19.520Z,74.30
2019-01-06T18:34:09.767Z,74.20
2019-01-06T18:36:56.509Z,74.40
2019-01-06T18:39:58.773Z,74.20
2019-01-06T18:42:57.692Z,73.90
2019-01-06T18:45:43.104Z,74.00
2019-01-06T18:48:24.775Z,74.10
2019-01-06T18:51:30.503Z,74.20
2019-01-06T18:54:11.179Z,73.90
2019-01-06T18:56:58.659Z,73.90
2019-01-06T18:59:36.943Z,73.90
2019-01-06T19:02:26.103Z,73.70
2019-01-06T19:05:21.817Z,73.60
2019-01-06T19:08:07.876Z,73.50
2019-01-06T19:11:13.143Z,73.50
2019-01-06T19:13:58.723Z,73.80
2019-01-06T19:16:34.234Z,73.40
2019-01-06T19:19:20.431Z,73.40
2019-01-06T19:22:10.115Z,73.20
2019-01-06T19:24:57.552Z,73.30
2019-01-06T19:27:56.448Z,73.10
2019-01-06T19:30:41.821Z,73.10
2019-01-06T19:33:40.771Z,73.00
2019-01-06T19:36:29.072Z,73.00
2019-01-06T19:39:15.598Z,72.90
2019-01-06T19:42:20.948Z,73.20
2019-01-06T19:45:07.564Z,72.90
2019-01-06T19:47:53.337Z,73.00
2019-01-06T19:50:38.855Z,72.90
2019-01-06T19:53:26.068Z,72.90
2019-01-06T19:56:13.035Z,72.90
2019-01-06T19:58:58.688Z,73.30
2019-01-06T20:02:03.595Z,72.60
2019-01-06T20:04:56.856Z,72.50
2019-01-06T20:07:42.371Z,72.20
2019-01-06T20:10:39.183Z,71.90
2019-01-06T20:13:24.721Z,71.90
2019-01-06T20:16:09.660Z,71.50
2019-01-06T20:18:51.920Z,71.40
2019-01-06T20:21:37.178Z,71.70
2019-01-06T20:24:20.623Z,71.90
2019-01-06T20:27:02.450Z,72.00
2019-01-06T20:29:48.480Z,71.90
2019-01-06T20:32:26.178Z,71.50
2019-01-06T20:35:16.111Z,71.80
2019-01-06T20:38:05.709Z,71.90
2019-01-06T20:40:51.545Z,71.80
2019-01-06T20:43:34.961Z,71.00
2019-01-06T20:46:37.340Z,71.50
2019-01-06T20:49:26.859Z,71.30
2019-01-06T20:52:07.180Z,71.60
2019-01-06T20:55:03.103Z,70.90
2019-01-06T20:57:57.596Z,70.80
2019-01-06T21:00:43.732Z,71.20
2019-01-06T21:03:40.012Z,70.90
2019-01-06T21:06:26.406Z,71.10
2019-01-06T21:09:13.436Z,71.40
2019-01-06T21:12:00.861Z,71.60
2019-01-06T21:14:46.035Z,71.70
2019-01-06T21:17:35.483Z,71.50
2019-01-06T21:20:28.477Z,71.50
2019-01-06T21:23:14.649Z,71.50
2019-01-06T21:25:59.783Z,71.60
2019-01-06T21:29:03.045Z,71.70
2019-01-06T21:32:03.653Z,71.50
2019-01-06T21:34:49.780Z,72.00
2019-01-06T21:37:39.215Z,71.90
2019-01-06T21:40:35.268Z,72.10
2019-01-06T21:43:25.988Z,72.50
2019-01-06T21:46:11.479Z,72.40
2019-01-06T21:49:11.083Z,72.80
2019-01-06T21:52:16.308Z,73.00
2019-01-06T21:55:01.999Z,73.30
2019-01-06T21:57:53.403Z,73.40
2019-01-06T22:00:33.488Z,73.40
2019-01-06T22:03:25.841Z,73.60
2019-01-06T22:06:21.279Z,73.50
2019-01-06T22:09:20.771Z,73.60
2019-01-06T22:12:13.748Z,73.80
2019-01-06T22:15:08.455Z,73.70
2019-01-06T22:17:58.339Z,73.80
2019-01-06T22:21:01.235Z,73.50
2019-01-06T22:23:46.905Z,73.70
2019-01-06T22:26:34.836Z,73.60
2019-01-06T22:29:33.780Z,73.70
2019-01-06T22:32:29.319Z,73.60
2019-01-06T22:35:29.999Z,73.60
2019-01-06T22:38:16.459Z,73.50
2019-01-06T22:41:06.651Z,73.50
2019-01-06T22:43:52.311Z,73.40
2019-01-06T22:46:33.720Z,73.40
2019-01-06T22:49:19.557Z,73.40
2019-01-06T22:51:59.860Z,73.40
2019-01-06T22:54:45.064Z,73.40
2019-01-06T22:57:30.859Z,73.20
2019-01-06T23:00:25.297Z,73.50
2019-01-06T23:03:15.027Z,73.30
2019-01-06T23:06:00.673Z,73.40
2019-01-06T23:08:58.883Z,73.30
2019-01-06T23:11:49.049Z,73.40
2019-01-06T23:14:50.815Z,73.50
2019-01-06T23:17:44.068Z,73.30
2019-01-06T23:20:45.414Z,73.40
2019-01-06T23:23:47.363Z,73.30
2019-01-06T23:26:33.056Z,73.20
2019-01-06T23:29:35.423Z,73.10
2019-01-06T23:32:20.655Z,74.00
2019-01-06T23:35:08.884Z,73.30
2019-01-06T23:37:54.805Z,73.50
2019-01-06T23:40:50.471Z,73.50
2019-01-06T23:43:55.368Z,73.70
2019-01-06T23:46:42.763Z,73.60
2019-01-06T23:49:25.981Z,73.50
2019-01-06T23:52:23.231Z,73.10
2019-01-06T23:55:09.295Z,73.10
2019-01-06T23:58:10.687Z,73.90
